sensor_id;sensor_type;location;lat;lon;timestamp;temperature;humidity
21298;DHT22;10808;48.010;11.326;2022-10-16T00:01:16;13.90;99.90
21298;DHT22;10808;48.010;11.326;2022-10-16T00:03:43;13.80;99.90
21298;DHT22;10808;48.010;11.326;2022-10-16T00:06:11;13.80;99.90
21298;DHT22;10808;48.010;11.326;2022-10-16T00:08:39;13.80;99.90
21298;DHT22;10808;48.010;11.326;2022-10-16T00:11:08;13.80;99.90
21298;DHT22;10808;48.010;11.326;2022-10-16T00:13:36;13.80;99.90
21298;DHT22;10808;48.010;11.326;2022-10-16T00:16:03;13.80;99.90
21298;DHT22;10808;48.010;11.326;2022-10-16T00:18:30;13.80;99.90
21298;DHT22;10808;48.010;11.326;2022-10-16T00:21:05;13.70;99.90
21298;DHT22;10808;48.010;11.326;2022-10-16T00:23:32;13.70;99.90
21298;DHT22;10808;48.010;11.326;2022-10-16T00:26:02;13.70;99.90
21298;DHT22;10808;48.010;11.326;2022-10-16T00:28:30;13.70;99.90
21298;DHT22;10808;48.010;11.326;2022-10-16T00:30:56;13.70;99.90
21298;DHT22;10808;48.010;11.326;2022-10-16T00:33:22;13.70;99.90
21298;DHT22;10808;48.010;11.326;2022-10-16T00:35:48;13.60;99.90
21298;DHT22;10808;48.010;11.326;2022-10-16T00:38:14;13.60;99.90
21298;DHT22;10808;48.010;11.326;2022-10-16T00:40:40;13.60;99.90
21298;DHT22;10808;48.010;11.326;2022-10-16T00:43:41;13.60;99.90
21298;DHT22;10808;48.010;11.326;2022-10-16T00:46:38;13.60;99.90
21298;DHT22;10808;48.010;11.326;2022-10-16T00:49:23;13.60;99.90
21298;DHT22;10808;48.010;11.326;2022-10-16T00:51:51;13.60;99.90
21298;DHT22;10808;48.010;11.326;2022-10-16T00:54:24;13.60;99.90
21298;DHT22;10808;48.010;11.326;2022-10-16T00:56:51;13.60;99.90
21298;DHT22;10808;48.010;11.326;2022-10-16T00:59:24;13.60;99.90
21298;DHT22;10808;48.010;11.326;2022-10-16T01:01:51;13.60;99.90
21298;DHT22;10808;48.010;11.326;2022-10-16T01:04:18;13.60;99.90
21298;DHT22;10808;48.010;11.326;2022-10-16T01:09:28;13.60;99.90
21298;DHT22;10808;48.010;11.326;2022-10-16T01:12:10;13.60;99.90
21298;DHT22;10808;48.010;11.326;2022-10-16T01:20:12;13.60;99.90
21298;DHT22;10808;48.010;11.326;2022-10-16T01:25:37;13.60;99.90
21298;DHT22;10808;48.010;11.326;2022-10-16T01:28:09;13.60;99.90
21298;DHT22;10808;48.010;11.326;2022-10-16T01:30:39;13.60;99.90
21298;DHT22;10808;48.010;11.326;2022-10-16T01:33:20;13.50;99.90
21298;DHT22;10808;48.010;11.326;2022-10-16T01:35:52;13.50;99.90
21298;DHT22;10808;48.010;11.326;2022-10-16T01:38:30;13.50;99.90
21298;DHT22;10808;48.010;11.326;2022-10-16T01:41:03;13.50;99.90
21298;DHT22;10808;48.010;11.326;2022-10-16T01:43:34;13.50;99.90
21298;DHT22;10808;48.010;11.326;2022-10-16T01:46:02;13.50;99.90
21298;DHT22;10808;48.010;11.326;2022-10-16T01:48:29;13.40;99.90
21298;DHT22;10808;48.010;11.326;2022-10-16T01:51:06;13.40;99.90
21298;DHT22;10808;48.010;11.326;2022-10-16T01:53:34;13.40;99.90
21298;DHT22;10808;48.010;11.326;2022-10-16T01:56:02;13.40;99.90
21298;DHT22;10808;48.010;11.326;2022-10-16T01:58:30;13.40;99.90
21298;DHT22;10808;48.010;11.326;2022-10-16T02:01:02;13.30;99.90
21298;DHT22;10808;48.010;11.326;2022-10-16T02:03:28;13.30;99.90
21298;DHT22;10808;48.010;11.326;2022-10-16T02:05:56;13.30;99.90
21298;DHT22;10808;48.010;11.326;2022-10-16T02:08:24;13.20;99.90
21298;DHT22;10808;48.010;11.326;2022-10-16T02:10:51;13.20;99.90
21298;DHT22;10808;48.010;11.326;2022-10-16T02:13:39;13.20;99.90
21298;DHT22;10808;48.010;11.326;2022-10-16T02:16:09;13.20;99.90
21298;DHT22;10808;48.010;11.326;2022-10-16T02:18:36;13.20;99.90
21298;DHT22;10808;48.010;11.326;2022-10-16T02:24:24;13.10;99.90
21298;DHT22;10808;48.010;11.326;2022-10-16T02:26:52;13.10;99.90
21298;DHT22;10808;48.010;11.326;2022-10-16T02:29:25;13.10;99.90
21298;DHT22;10808;48.010;11.326;2022-10-16T02:31:57;13.10;99.90
21298;DHT22;10808;48.010;11.326;2022-10-16T02:34:25;13.10;99.90
21298;DHT22;10808;48.010;11.326;2022-10-16T02:36:54;13.00;99.90
21298;DHT22;10808;48.010;11.326;2022-10-16T02:39:21;13.00;99.90
21298;DHT22;10808;48.010;11.326;2022-10-16T02:41:47;13.00;99.90
21298;DHT22;10808;48.010;11.326;2022-10-16T02:44:13;13.00;99.90
21298;DHT22;10808;48.010;11.326;2022-10-16T02:46:39;12.90;99.90
21298;DHT22;10808;48.010;11.326;2022-10-16T02:49:05;12.90;99.90
21298;DHT22;10808;48.010;11.326;2022-10-16T02:51:31;12.90;99.90
21298;DHT22;10808;48.010;11.326;2022-10-16T02:53:57;12.90;99.90
21298;DHT22;10808;48.010;11.326;2022-10-16T02:56:24;12.90;99.90
21298;DHT22;10808;48.010;11.326;2022-10-16T02:58:56;12.80;99.90
21298;DHT22;10808;48.010;11.326;2022-10-16T03:01:23;12.80;99.90
21298;DHT22;10808;48.010;11.326;2022-10-16T03:03:49;12.80;99.90
21298;DHT22;10808;48.010;11.326;2022-10-16T03:06:16;12.80;99.90
21298;DHT22;10808;48.010;11.326;2022-10-16T03:08:42;12.80;99.90
21298;DHT22;10808;48.010;11.326;2022-10-16T03:11:08;12.70;99.90
21298;DHT22;10808;48.010;11.326;2022-10-16T03:13:34;12.70;99.90
21298;DHT22;10808;48.010;11.326;2022-10-16T03:16:01;12.70;99.90
21298;DHT22;10808;48.010;11.326;2022-10-16T03:18:27;12.70;99.90
21298;DHT22;10808;48.010;11.326;2022-10-16T03:20:53;12.70;99.90
21298;DHT22;10808;48.010;11.326;2022-10-16T03:23:19;12.60;99.90
21298;DHT22;10808;48.010;11.326;2022-10-16T03:25:45;12.70;99.90
21298;DHT22;10808;48.010;11.326;2022-10-16T03:28:11;12.70;99.90
21298;DHT22;10808;48.010;11.326;2022-10-16T03:30:37;12.70;99.90
21298;DHT22;10808;48.010;11.326;2022-10-16T03:33:05;12.70;99.90
21298;DHT22;10808;48.010;11.326;2022-10-16T03:35:32;12.70;99.90
21298;DHT22;10808;48.010;11.326;2022-10-16T03:37:58;12.80;99.90
21298;DHT22;10808;48.010;11.326;2022-10-16T03:40:24;12.80;99.90
21298;DHT22;10808;48.010;11.326;2022-10-16T03:42:50;12.80;99.90
21298;DHT22;10808;48.010;11.326;2022-10-16T03:45:18;12.80;99.90
21298;DHT22;10808;48.010;11.326;2022-10-16T03:47:45;12.80;99.90
21298;DHT22;10808;48.010;11.326;2022-10-16T03:50:11;12.80;99.90
21298;DHT22;10808;48.010;11.326;2022-10-16T03:52:37;12.90;99.90
21298;DHT22;10808;48.010;11.326;2022-10-16T03:55:03;12.90;99.90
21298;DHT22;10808;48.010;11.326;2022-10-16T03:57:29;13.00;99.90
21298;DHT22;10808;48.010;11.326;2022-10-16T03:59:55;13.00;99.90
21298;DHT22;10808;48.010;11.326;2022-10-16T04:02:21;13.00;99.90
21298;DHT22;10808;48.010;11.326;2022-10-16T04:04:47;13.00;99.90
21298;DHT22;10808;48.010;11.326;2022-10-16T04:07:14;13.00;99.90
21298;DHT22;10808;48.010;11.326;2022-10-16T04:09:40;13.10;99.90
21298;DHT22;10808;48.010;11.326;2022-10-16T04:12:06;13.10;99.90
21298;DHT22;10808;48.010;11.326;2022-10-16T04:14:32;13.10;99.90
21298;DHT22;10808;48.010;11.326;2022-10-16T04:16:59;13.20;99.90
21298;DHT22;10808;48.010;11.326;2022-10-16T04:19:25;13.20;99.90
21298;DHT22;10808;48.010;11.326;2022-10-16T04:21:51;13.20;99.90
21298;DHT22;10808;48.010;11.326;2022-10-16T04:24:18;13.20;99.90
21298;DHT22;10808;48.010;11.326;2022-10-16T04:26:44;13.20;99.90
21298;DHT22;10808;48.010;11.326;2022-10-16T04:29:10;13.30;99.90
21298;DHT22;10808;48.010;11.326;2022-10-16T04:31:36;13.30;99.90
21298;DHT22;10808;48.010;11.326;2022-10-16T04:34:02;13.30;99.90
21298;DHT22;10808;48.010;11.326;2022-10-16T04:36:28;13.30;99.90
21298;DHT22;10808;48.010;11.326;2022-10-16T04:38:54;13.30;99.90
21298;DHT22;10808;48.010;11.326;2022-10-16T04:41:20;13.30;99.90
21298;DHT22;10808;48.010;11.326;2022-10-16T04:43:46;13.30;99.90
21298;DHT22;10808;48.010;11.326;2022-10-16T04:46:13;13.40;99.90
21298;DHT22;10808;48.010;11.326;2022-10-16T04:48:39;13.40;99.90
21298;DHT22;10808;48.010;11.326;2022-10-16T04:51:05;13.40;99.90
21298;DHT22;10808;48.010;11.326;2022-10-16T04:53:31;13.40;99.90
21298;DHT22;10808;48.010;11.326;2022-10-16T04:55:57;13.40;99.90
21298;DHT22;10808;48.010;11.326;2022-10-16T04:58:23;13.40;99.90
21298;DHT22;10808;48.010;11.326;2022-10-16T05:00:49;13.50;99.90
21298;DHT22;10808;48.010;11.326;2022-10-16T05:03:15;13.50;99.90
21298;DHT22;10808;48.010;11.326;2022-10-16T05:05:45;13.50;99.90
21298;DHT22;10808;48.010;11.326;2022-10-16T05:08:13;13.50;99.90
21298;DHT22;10808;48.010;11.326;2022-10-16T05:10:42;13.50;99.90
21298;DHT22;10808;48.010;11.326;2022-10-16T05:13:08;13.50;99.90
21298;DHT22;10808;48.010;11.326;2022-10-16T05:15:35;13.50;99.90
21298;DHT22;10808;48.010;11.326;2022-10-16T05:18:01;13.60;99.90
21298;DHT22;10808;48.010;11.326;2022-10-16T05:20:27;13.50;99.90
21298;DHT22;10808;48.010;11.326;2022-10-16T05:22:53;13.60;99.90
21298;DHT22;10808;48.010;11.326;2022-10-16T05:25:19;13.60;99.90
21298;DHT22;10808;48.010;11.326;2022-10-16T05:27:49;13.60;99.90
21298;DHT22;10808;48.010;11.326;2022-10-16T05:30:16;13.60;99.90
21298;DHT22;10808;48.010;11.326;2022-10-16T05:32:47;13.60;99.90
21298;DHT22;10808;48.010;11.326;2022-10-16T05:35:13;13.60;99.90
21298;DHT22;10808;48.010;11.326;2022-10-16T05:37:39;13.60;99.90
21298;DHT22;10808;48.010;11.326;2022-10-16T05:40:07;13.60;99.90
21298;DHT22;10808;48.010;11.326;2022-10-16T05:42:33;13.60;99.90
21298;DHT22;10808;48.010;11.326;2022-10-16T05:45:00;13.50;99.90
21298;DHT22;10808;48.010;11.326;2022-10-16T05:47:26;13.50;99.90
21298;DHT22;10808;48.010;11.326;2022-10-16T05:49:53;13.50;99.90
21298;DHT22;10808;48.010;11.326;2022-10-16T05:52:19;13.40;99.90
21298;DHT22;10808;48.010;11.326;2022-10-16T05:54:45;13.40;99.90
21298;DHT22;10808;48.010;11.326;2022-10-16T05:57:11;13.50;99.90
21298;DHT22;10808;48.010;11.326;2022-10-16T05:59:38;13.40;99.90
21298;DHT22;10808;48.010;11.326;2022-10-16T06:02:04;13.40;99.90
21298;DHT22;10808;48.010;11.326;2022-10-16T06:04:30;13.40;99.90
21298;DHT22;10808;48.010;11.326;2022-10-16T06:06:59;13.40;99.90
21298;DHT22;10808;48.010;11.326;2022-10-16T06:09:28;13.40;99.90
21298;DHT22;10808;48.010;11.326;2022-10-16T06:11:54;13.40;99.90
21298;DHT22;10808;48.010;11.326;2022-10-16T06:14:20;13.40;99.90
21298;DHT22;10808;48.010;11.326;2022-10-16T06:16:48;13.40;99.90
21298;DHT22;10808;48.010;11.326;2022-10-16T06:19:14;13.40;99.90
21298;DHT22;10808;48.010;11.326;2022-10-16T06:21:42;13.50;99.90
21298;DHT22;10808;48.010;11.326;2022-10-16T06:24:08;13.50;99.90
21298;DHT22;10808;48.010;11.326;2022-10-16T06:26:34;13.50;99.90
21298;DHT22;10808;48.010;11.326;2022-10-16T06:29:00;13.50;99.90
21298;DHT22;10808;48.010;11.326;2022-10-16T06:31:27;13.50;99.90
21298;DHT22;10808;48.010;11.326;2022-10-16T06:33:57;13.60;99.90
21298;DHT22;10808;48.010;11.326;2022-10-16T06:36:24;13.60;99.90
21298;DHT22;10808;48.010;11.326;2022-10-16T06:38:51;13.70;99.90
21298;DHT22;10808;48.010;11.326;2022-10-16T06:41:21;13.70;99.90
21298;DHT22;10808;48.010;11.326;2022-10-16T06:43:48;13.70;99.90
21298;DHT22;10808;48.010;11.326;2022-10-16T06:46:17;13.70;99.90
21298;DHT22;10808;48.010;11.326;2022-10-16T06:48:43;13.80;99.90
21298;DHT22;10808;48.010;11.326;2022-10-16T06:51:12;13.80;99.90
21298;DHT22;10808;48.010;11.326;2022-10-16T06:53:41;13.80;99.90
21298;DHT22;10808;48.010;11.326;2022-10-16T06:56:13;13.90;99.90
21298;DHT22;10808;48.010;11.326;2022-10-16T06:58:41;13.90;99.90
21298;DHT22;10808;48.010;11.326;2022-10-16T07:01:08;14.00;99.90
21298;DHT22;10808;48.010;11.326;2022-10-16T07:03:42;14.00;99.90
21298;DHT22;10808;48.010;11.326;2022-10-16T07:06:10;14.10;99.90
21298;DHT22;10808;48.010;11.326;2022-10-16T07:08:39;14.10;99.90
21298;DHT22;10808;48.010;11.326;2022-10-16T07:11:11;14.10;99.90
21298;DHT22;10808;48.010;11.326;2022-10-16T07:13:38;14.20;99.90
21298;DHT22;10808;48.010;11.326;2022-10-16T07:16:12;14.20;99.90
21298;DHT22;10808;48.010;11.326;2022-10-16T07:18:39;14.30;99.90
21298;DHT22;10808;48.010;11.326;2022-10-16T07:21:09;14.30;99.90
21298;DHT22;10808;48.010;11.326;2022-10-16T07:23:36;14.30;99.90
21298;DHT22;10808;48.010;11.326;2022-10-16T07:26:03;14.30;99.90
21298;DHT22;10808;48.010;11.326;2022-10-16T07:28:30;14.30;99.90
21298;DHT22;10808;48.010;11.326;2022-10-16T07:31:06;14.30;99.90
21298;DHT22;10808;48.010;11.326;2022-10-16T07:33:34;14.40;99.90
21298;DHT22;10808;48.010;11.326;2022-10-16T07:36:01;14.40;99.90
21298;DHT22;10808;48.010;11.326;2022-10-16T07:38:27;14.40;99.90
21298;DHT22;10808;48.010;11.326;2022-10-16T07:41:02;14.40;99.90
21298;DHT22;10808;48.010;11.326;2022-10-16T07:43:29;14.40;99.90
21298;DHT22;10808;48.010;11.326;2022-10-16T07:45:56;14.40;99.90
21298;DHT22;10808;48.010;11.326;2022-10-16T07:48:23;14.40;99.90
21298;DHT22;10808;48.010;11.326;2022-10-16T07:50:50;14.40;99.90
21298;DHT22;10808;48.010;11.326;2022-10-16T07:53:16;14.50;99.90
21298;DHT22;10808;48.010;11.326;2022-10-16T07:55:42;14.50;99.90
21298;DHT22;10808;48.010;11.326;2022-10-16T07:58:08;14.60;99.90
21298;DHT22;10808;48.010;11.326;2022-10-16T08:00:36;14.60;99.90
21298;DHT22;10808;48.010;11.326;2022-10-16T08:03:03;14.60;99.90
21298;DHT22;10808;48.010;11.326;2022-10-16T08:05:30;14.70;99.90
21298;DHT22;10808;48.010;11.326;2022-10-16T08:07:57;14.70;99.90
21298;DHT22;10808;48.010;11.326;2022-10-16T08:10:25;14.80;99.90
21298;DHT22;10808;48.010;11.326;2022-10-16T08:12:52;14.80;99.90
21298;DHT22;10808;48.010;11.326;2022-10-16T08:15:19;14.90;99.90
21298;DHT22;10808;48.010;11.326;2022-10-16T08:17:53;15.00;99.90
21298;DHT22;10808;48.010;11.326;2022-10-16T08:20:19;15.10;99.90
21298;DHT22;10808;48.010;11.326;2022-10-16T08:22:45;15.10;99.90
21298;DHT22;10808;48.010;11.326;2022-10-16T08:25:11;15.20;99.90
21298;DHT22;10808;48.010;11.326;2022-10-16T08:27:38;15.30;99.90
21298;DHT22;10808;48.010;11.326;2022-10-16T08:30:04;15.40;99.90
21298;DHT22;10808;48.010;11.326;2022-10-16T08:32:30;15.50;99.90
21298;DHT22;10808;48.010;11.326;2022-10-16T08:34:56;15.60;99.90
21298;DHT22;10808;48.010;11.326;2022-10-16T08:37:22;15.80;99.90
21298;DHT22;10808;48.010;11.326;2022-10-16T08:39:48;15.80;99.90
21298;DHT22;10808;48.010;11.326;2022-10-16T08:50:38;16.50;99.90
21298;DHT22;10808;48.010;11.326;2022-10-16T08:53:06;16.70;99.90
21298;DHT22;10808;48.010;11.326;2022-10-16T08:55:45;16.90;99.90
21298;DHT22;10808;48.010;11.326;2022-10-16T08:58:22;17.20;99.90
21298;DHT22;10808;48.010;11.326;2022-10-16T09:00:53;17.40;99.90
21298;DHT22;10808;48.010;11.326;2022-10-16T09:04:11;17.70;99.90
21298;DHT22;10808;48.010;11.326;2022-10-16T09:23:32;20.10;99.90
21298;DHT22;10808;48.010;11.326;2022-10-16T09:26:00;20.40;99.90
21298;DHT22;10808;48.010;11.326;2022-10-16T09:28:27;20.70;99.90
21298;DHT22;10808;48.010;11.326;2022-10-16T09:30:53;21.00;99.90
21298;DHT22;10808;48.010;11.326;2022-10-16T09:33:23;21.30;99.90
21298;DHT22;10808;48.010;11.326;2022-10-16T09:35:53;21.50;99.90
21298;DHT22;10808;48.010;11.326;2022-10-16T09:40:57;22.00;99.90
21298;DHT22;10808;48.010;11.326;2022-10-16T09:43:34;22.20;99.90
21298;DHT22;10808;48.010;11.326;2022-10-16T09:46:04;22.50;99.90
21298;DHT22;10808;48.010;11.326;2022-10-16T09:48:44;22.80;99.90
21298;DHT22;10808;48.010;11.326;2022-10-16T09:51:25;23.10;99.90
21298;DHT22;10808;48.010;11.326;2022-10-16T09:54:01;23.30;99.90
21298;DHT22;10808;48.010;11.326;2022-10-16T09:56:30;23.70;99.90
21298;DHT22;10808;48.010;11.326;2022-10-16T09:59:22;24.10;99.90
21298;DHT22;10808;48.010;11.326;2022-10-16T10:01:51;24.20;99.90
21298;DHT22;10808;48.010;11.326;2022-10-16T10:04:19;24.40;99.90
21298;DHT22;10808;48.010;11.326;2022-10-16T10:06:49;24.70;99.90
21298;DHT22;10808;48.010;11.326;2022-10-16T10:11:51;25.20;99.90
21298;DHT22;10808;48.010;11.326;2022-10-16T10:14:22;25.40;99.90
21298;DHT22;10808;48.010;11.326;2022-10-16T10:16:51;25.60;99.90
21298;DHT22;10808;48.010;11.326;2022-10-16T10:19:20;25.80;99.90
21298;DHT22;10808;48.010;11.326;2022-10-16T10:21:48;25.90;99.90
21298;DHT22;10808;48.010;11.326;2022-10-16T10:24:16;26.00;99.90
21298;DHT22;10808;48.010;11.326;2022-10-16T10:27:09;26.30;99.90
21298;DHT22;10808;48.010;11.326;2022-10-16T10:32:55;26.50;99.90
21298;DHT22;10808;48.010;11.326;2022-10-16T10:40:52;27.30;99.90
21298;DHT22;10808;48.010;11.326;2022-10-16T10:46:48;27.40;99.90
21298;DHT22;10808;48.010;11.326;2022-10-16T10:54:57;28.30;99.10
21298;DHT22;10808;48.010;11.326;2022-10-16T11:03:26;29.60;99.90
21298;DHT22;10808;48.010;11.326;2022-10-16T11:06:15;29.80;97.70
21298;DHT22;10808;48.010;11.326;2022-10-16T11:11:16;29.90;99.90
21298;DHT22;10808;48.010;11.326;2022-10-16T11:16:31;30.30;97.60
21298;DHT22;10808;48.010;11.326;2022-10-16T11:22:06;30.70;96.80
21298;DHT22;10808;48.010;11.326;2022-10-16T11:24:48;30.50;96.40
21298;DHT22;10808;48.010;11.326;2022-10-16T11:27:30;30.80;96.40
21298;DHT22;10808;48.010;11.326;2022-10-16T11:30:01;30.90;95.20
21298;DHT22;10808;48.010;11.326;2022-10-16T11:35:21;30.40;95.80
21298;DHT22;10808;48.010;11.326;2022-10-16T11:37:50;30.40;95.80
21298;DHT22;10808;48.010;11.326;2022-10-16T11:40:33;30.70;96.60
21298;DHT22;10808;48.010;11.326;2022-10-16T11:43:12;30.90;95.00
21298;DHT22;10808;48.010;11.326;2022-10-16T11:45:52;30.80;93.70
21298;DHT22;10808;48.010;11.326;2022-10-16T11:48:27;30.50;93.10
21298;DHT22;10808;48.010;11.326;2022-10-16T11:51:00;30.40;93.50
21298;DHT22;10808;48.010;11.326;2022-10-16T11:56:24;30.30;92.50
21298;DHT22;10808;48.010;11.326;2022-10-16T11:59:01;30.40;94.40
21298;DHT22;10808;48.010;11.326;2022-10-16T12:04:19;30.50;92.50
21298;DHT22;10808;48.010;11.326;2022-10-16T12:09:49;30.20;92.50
21298;DHT22;10808;48.010;11.326;2022-10-16T12:15:27;29.40;90.10
21298;DHT22;10808;48.010;11.326;2022-10-16T12:17:54;29.00;88.80
21298;DHT22;10808;48.010;11.326;2022-10-16T12:20:32;28.50;87.00
21298;DHT22;10808;48.010;11.326;2022-10-16T12:23:00;28.00;85.10
21298;DHT22;10808;48.010;11.326;2022-10-16T12:25:33;27.50;86.90
21298;DHT22;10808;48.010;11.326;2022-10-16T12:30:41;26.90;86.90
21298;DHT22;10808;48.010;11.326;2022-10-16T12:35:49;26.50;90.30
21298;DHT22;10808;48.010;11.326;2022-10-16T12:38:16;26.40;89.50
21298;DHT22;10808;48.010;11.326;2022-10-16T12:40:44;26.10;90.50
21298;DHT22;10808;48.010;11.326;2022-10-16T12:43:46;26.20;91.90
21298;DHT22;10808;48.010;11.326;2022-10-16T12:48:45;26.10;91.00
21298;DHT22;10808;48.010;11.326;2022-10-16T12:54:15;25.70;91.00
21298;DHT22;10808;48.010;11.326;2022-10-16T13:02:59;25.20;91.40
21298;DHT22;10808;48.010;11.326;2022-10-16T13:05:46;25.30;93.10
21298;DHT22;10808;48.010;11.326;2022-10-16T13:19:44;26.10;92.70
21298;DHT22;10808;48.010;11.326;2022-10-16T13:25:20;26.50;92.40
21298;DHT22;10808;48.010;11.326;2022-10-16T13:28:16;26.80;92.00
21298;DHT22;10808;48.010;11.326;2022-10-16T13:30:43;27.00;92.40
21298;DHT22;10808;48.010;11.326;2022-10-16T13:33:30;27.30;92.70
21298;DHT22;10808;48.010;11.326;2022-10-16T13:35:58;27.40;92.20
21298;DHT22;10808;48.010;11.326;2022-10-16T13:38:30;27.40;89.30
21298;DHT22;10808;48.010;11.326;2022-10-16T13:41:12;27.50;90.50
21298;DHT22;10808;48.010;11.326;2022-10-16T13:43:51;27.70;90.70
21298;DHT22;10808;48.010;11.326;2022-10-16T13:46:21;27.90;87.40
21298;DHT22;10808;48.010;11.326;2022-10-16T13:51:38;28.20;85.90
21298;DHT22;10808;48.010;11.326;2022-10-16T13:54:04;28.30;89.30
21298;DHT22;10808;48.010;11.326;2022-10-16T13:56:33;28.30;83.50
21298;DHT22;10808;48.010;11.326;2022-10-16T13:59:05;28.30;87.20
21298;DHT22;10808;48.010;11.326;2022-10-16T14:01:35;28.20;84.80
21298;DHT22;10808;48.010;11.326;2022-10-16T14:04:11;28.40;85.80
21298;DHT22;10808;48.010;11.326;2022-10-16T14:06:42;28.50;84.30
21298;DHT22;10808;48.010;11.326;2022-10-16T14:09:27;28.60;83.70
21298;DHT22;10808;48.010;11.326;2022-10-16T14:14:24;29.00;87.00
21298;DHT22;10808;48.010;11.326;2022-10-16T14:16:51;29.20;88.30
21298;DHT22;10808;48.010;11.326;2022-10-16T14:19:24;29.30;85.60
21298;DHT22;10808;48.010;11.326;2022-10-16T14:21:51;29.40;85.80
21298;DHT22;10808;48.010;11.326;2022-10-16T14:24:31;29.40;80.50
21298;DHT22;10808;48.010;11.326;2022-10-16T14:26:59;29.50;88.80
21298;DHT22;10808;48.010;11.326;2022-10-16T14:29:27;29.70;87.80
21298;DHT22;10808;48.010;11.326;2022-10-16T14:32:05;29.90;88.90
21298;DHT22;10808;48.010;11.326;2022-10-16T14:34:36;30.00;88.00
21298;DHT22;10808;48.010;11.326;2022-10-16T14:37:09;30.00;88.20
21298;DHT22;10808;48.010;11.326;2022-10-16T14:39:40;30.00;87.70
21298;DHT22;10808;48.010;11.326;2022-10-16T14:42:20;29.90;88.10
21298;DHT22;10808;48.010;11.326;2022-10-16T14:44:51;29.70;88.70
21298;DHT22;10808;48.010;11.326;2022-10-16T14:47:23;29.50;88.90
21298;DHT22;10808;48.010;11.326;2022-10-16T14:49:52;29.40;90.10
21298;DHT22;10808;48.010;11.326;2022-10-16T14:52:21;29.10;90.00
21298;DHT22;10808;48.010;11.326;2022-10-16T14:54:51;28.90;91.00
21298;DHT22;10808;48.010;11.326;2022-10-16T14:57:24;28.70;91.10
21298;DHT22;10808;48.010;11.326;2022-10-16T14:59:52;28.40;91.60
21298;DHT22;10808;48.010;11.326;2022-10-16T15:02:31;28.20;92.00
21298;DHT22;10808;48.010;11.326;2022-10-16T15:04:58;28.10;92.50
21298;DHT22;10808;48.010;11.326;2022-10-16T15:07:28;27.80;93.00
21298;DHT22;10808;48.010;11.326;2022-10-16T15:09:54;27.60;93.60
21298;DHT22;10808;48.010;11.326;2022-10-16T15:12:22;27.40;94.00
21298;DHT22;10808;48.010;11.326;2022-10-16T15:14:48;27.20;94.30
21298;DHT22;10808;48.010;11.326;2022-10-16T15:17:14;27.00;94.70
21298;DHT22;10808;48.010;11.326;2022-10-16T15:19:40;26.70;94.90
21298;DHT22;10808;48.010;11.326;2022-10-16T15:22:10;26.60;95.50
21298;DHT22;10808;48.010;11.326;2022-10-16T15:24:36;26.40;95.80
21298;DHT22;10808;48.010;11.326;2022-10-16T15:27:03;26.20;96.00
21298;DHT22;10808;48.010;11.326;2022-10-16T15:29:29;26.00;96.50
21298;DHT22;10808;48.010;11.326;2022-10-16T15:31:55;25.80;96.90
21298;DHT22;10808;48.010;11.326;2022-10-16T15:34:21;25.70;97.20
21298;DHT22;10808;48.010;11.326;2022-10-16T15:36:47;25.50;97.60
21298;DHT22;10808;48.010;11.326;2022-10-16T15:39:16;25.40;97.90
21298;DHT22;10808;48.010;11.326;2022-10-16T15:41:43;25.20;98.10
21298;DHT22;10808;48.010;11.326;2022-10-16T15:44:10;25.00;98.50
21298;DHT22;10808;48.010;11.326;2022-10-16T15:46:36;24.90;98.60
21298;DHT22;10808;48.010;11.326;2022-10-16T15:49:03;24.70;99.00
21298;DHT22;10808;48.010;11.326;2022-10-16T15:51:30;24.60;99.30
21298;DHT22;10808;48.010;11.326;2022-10-16T15:53:59;24.40;99.60
21298;DHT22;10808;48.010;11.326;2022-10-16T15:56:27;24.30;99.70
21298;DHT22;10808;48.010;11.326;2022-10-16T15:58:54;24.10;99.90
21298;DHT22;10808;48.010;11.326;2022-10-16T16:01:21;23.90;99.90
21298;DHT22;10808;48.010;11.326;2022-10-16T16:03:47;23.80;99.90
21298;DHT22;10808;48.010;11.326;2022-10-16T16:06:14;23.60;99.90
21298;DHT22;10808;48.010;11.326;2022-10-16T16:08:40;23.50;99.90
21298;DHT22;10808;48.010;11.326;2022-10-16T16:11:14;23.30;99.90
21298;DHT22;10808;48.010;11.326;2022-10-16T16:13:41;23.20;99.90
21298;DHT22;10808;48.010;11.326;2022-10-16T16:16:12;23.00;99.90
21298;DHT22;10808;48.010;11.326;2022-10-16T16:18:39;22.80;99.90
21298;DHT22;10808;48.010;11.326;2022-10-16T16:21:06;22.60;99.90
21298;DHT22;10808;48.010;11.326;2022-10-16T16:23:32;22.40;99.90
21298;DHT22;10808;48.010;11.326;2022-10-16T16:26:26;22.40;99.90
21298;DHT22;10808;48.010;11.326;2022-10-16T16:28:53;22.20;99.90
21298;DHT22;10808;48.010;11.326;2022-10-16T16:31:43;22.10;99.90
21298;DHT22;10808;48.010;11.326;2022-10-16T16:34:09;21.90;99.90
21298;DHT22;10808;48.010;11.326;2022-10-16T16:36:35;21.80;99.90
21298;DHT22;10808;48.010;11.326;2022-10-16T16:39:02;21.70;99.90
21298;DHT22;10808;48.010;11.326;2022-10-16T16:41:30;21.70;99.90
21298;DHT22;10808;48.010;11.326;2022-10-16T16:44:08;21.60;99.90
21298;DHT22;10808;48.010;11.326;2022-10-16T16:46:34;21.50;99.90
21298;DHT22;10808;48.010;11.326;2022-10-16T16:49:03;21.30;99.90
21298;DHT22;10808;48.010;11.326;2022-10-16T16:51:29;21.30;99.90
21298;DHT22;10808;48.010;11.326;2022-10-16T16:53:56;21.20;99.90
21298;DHT22;10808;48.010;11.326;2022-10-16T16:56:23;21.10;99.90
21298;DHT22;10808;48.010;11.326;2022-10-16T16:58:51;21.00;99.90
21298;DHT22;10808;48.010;11.326;2022-10-16T17:01:18;20.90;99.90
21298;DHT22;10808;48.010;11.326;2022-10-16T17:03:45;20.80;99.90
21298;DHT22;10808;48.010;11.326;2022-10-16T17:06:13;20.80;99.90
21298;DHT22;10808;48.010;11.326;2022-10-16T17:08:41;20.60;99.90
21298;DHT22;10808;48.010;11.326;2022-10-16T17:11:12;20.60;99.90
21298;DHT22;10808;48.010;11.326;2022-10-16T17:13:39;20.50;99.90
21298;DHT22;10808;48.010;11.326;2022-10-16T17:16:06;20.40;99.90
21298;DHT22;10808;48.010;11.326;2022-10-16T17:18:33;20.30;99.90
21298;DHT22;10808;48.010;11.326;2022-10-16T17:21:04;20.20;99.90
21298;DHT22;10808;48.010;11.326;2022-10-16T17:23:31;20.20;99.90
21298;DHT22;10808;48.010;11.326;2022-10-16T17:26:10;20.10;99.90
21298;DHT22;10808;48.010;11.326;2022-10-16T17:28:37;20.00;99.90
21298;DHT22;10808;48.010;11.326;2022-10-16T17:31:27;20.00;99.90
21298;DHT22;10808;48.010;11.326;2022-10-16T17:33:54;19.90;99.90
21298;DHT22;10808;48.010;11.326;2022-10-16T17:36:21;19.80;99.90
21298;DHT22;10808;48.010;11.326;2022-10-16T17:38:48;19.80;99.90